createdAt,value
2019-04-28T00:02:23.153Z,9.23
2019-04-28T00:04:53.681Z,9.60
2019-04-28T00:07:23.060Z,8.83
2019-04-28T00:09:52.348Z,10.10
2019-04-28T00:12:22.967Z,10.47
2019-04-28T00:14:53.142Z,9.53
2019-04-28T00:17:22.379Z,9.33
2019-04-28T00:19:52.595Z,9.23
2019-04-28T00:22:28.437Z,9.73
2019-04-28T00:25:12.150Z,9.37
2019-04-28T00:27:45.408Z,9.27
2019-04-28T00:30:15.591Z,9.70
2019-04-28T00:32:48.867Z,9.73
2019-04-28T00:35:23.232Z,9.13
2019-04-28T00:37:54.469Z,9.27
2019-04-28T00:40:28.460Z,9.33
2019-04-28T00:42:57.770Z,9.97
2019-04-28T00:45:28.782Z,10.50
2019-04-28T00:48:00.831Z,10.40
2019-04-28T00:50:31.602Z,11.00
2019-04-28T00:53:02.511Z,10.57
2019-04-28T00:55:32.095Z,11.20
2019-04-28T00:58:02.565Z,10.40
2019-04-28T01:00:35.202Z,10.83
2019-04-28T01:03:04.592Z,10.87
2019-04-28T01:05:34.018Z,10.57
2019-04-28T01:08:03.153Z,10.17
2019-04-28T01:10:32.457Z,9.93
2019-04-28T01:13:02.200Z,78.07
2019-04-28T01:15:39.644Z,44.67
2019-04-28T01:18:20.341Z,28.47
2019-04-28T01:20:50.897Z,14.63
2019-04-28T01:23:20.363Z,10.63
2019-04-28T01:25:50.061Z,10.07
2019-04-28T01:28:19.640Z,9.93
2019-04-28T01:31:19.582Z,9.93
2019-04-28T01:34:10.260Z,9.20
2019-04-28T01:36:46.595Z,9.83
2019-04-28T01:39:13.472Z,9.50
2019-04-28T01:41:49.938Z,10.83
2019-04-28T01:44:26.752Z,10.10
2019-04-28T01:47:00.997Z,10.17
2019-04-28T01:49:31.498Z,10.20
2019-04-28T01:52:10.513Z,10.13
2019-04-28T01:54:50.147Z,11.17
2019-04-28T01:57:34.318Z,10.40
2019-04-28T02:00:20.021Z,10.73
2019-04-28T02:02:43.990Z,11.10
2019-04-28T02:05:15.638Z,11.37
2019-04-28T02:07:57.456Z,11.77
2019-04-28T02:10:33.987Z,10.17
2019-04-28T02:13:16.226Z,11.20
2019-04-28T02:15:55.402Z,10.87
2019-04-28T02:18:36.018Z,12.43
2019-04-28T02:21:39.568Z,11.17
2019-04-28T02:24:24.058Z,10.60
2019-04-28T02:26:54.187Z,10.93
2019-04-28T02:29:25.230Z,11.97
2019-04-28T02:32:16.856Z,11.50
2019-04-28T02:34:37.553Z,12.23
2019-04-28T02:37:16.685Z,11.23
2019-04-28T02:39:53.530Z,11.97
2019-04-28T02:42:30.941Z,12.20
2019-04-28T02:45:02.409Z,11.50
2019-04-28T02:47:54.339Z,11.87
2019-04-28T02:50:30.418Z,12.07
2019-04-28T02:53:10.817Z,12.30
2019-04-28T02:55:41.283Z,11.17
2019-04-28T02:58:13.127Z,11.40
2019-04-28T03:01:00.380Z,11.97
2019-04-28T03:03:16.893Z,12.57
2019-04-28T03:05:46.110Z,12.43
2019-04-28T03:08:15.356Z,11.70
2019-04-28T03:10:44.763Z,12.13
2019-04-28T03:13:14.166Z,12.23
2019-04-28T03:15:53.092Z,12.27
2019-04-28T03:18:24.482Z,11.50
2019-04-28T03:20:55.382Z,12.10
2019-04-28T03:23:31.099Z,11.47
2019-04-28T03:26:15.104Z,12.20
2019-04-28T03:29:01.868Z,12.03
2019-04-28T03:32:03.849Z,12.30
2019-04-28T03:34:12.916Z,13.87
2019-04-28T03:36:43.320Z,12.70
2019-04-28T03:39:15.080Z,12.90
2019-04-28T03:41:45.815Z,13.43
2019-04-28T03:44:15.720Z,13.60
2019-04-28T03:46:51.223Z,13.10
2019-04-28T03:49:33.836Z,12.13
2019-04-28T03:52:05.410Z,11.43
2019-04-28T03:54:34.660Z,12.37
2019-04-28T03:57:03.854Z,12.60
2019-04-28T03:59:33.157Z,11.97
2019-04-28T04:02:03.355Z,12.63
2019-04-28T04:04:32.841Z,11.70
2019-04-28T04:07:02.087Z,12.13
2019-04-28T04:09:54.372Z,12.63
2019-04-28T04:12:41.569Z,11.97
2019-04-28T04:15:21.408Z,12.30
2019-04-28T04:18:21.118Z,10.87
2019-04-28T04:20:51.440Z,11.20
2019-04-28T04:23:23.651Z,11.03
2019-04-28T04:25:53.568Z,11.47
2019-04-28T04:28:22.780Z,10.97
2019-04-28T04:30:54.765Z,9.57
2019-04-28T04:33:25.303Z,9.10
2019-04-28T04:35:54.603Z,9.00
2019-04-28T04:38:23.859Z,9.00
2019-04-28T04:40:53.251Z,9.30
2019-04-28T04:43:23.394Z,8.77
2019-04-28T04:46:14.071Z,8.57
2019-04-28T04:48:50.577Z,9.00
2019-04-28T04:51:21.319Z,8.53
2019-04-28T04:53:51.028Z,8.63
2019-04-28T04:56:21.440Z,8.50
2019-04-28T04:58:51.055Z,7.90
2019-04-28T05:01:40.824Z,7.50
2019-04-28T05:04:29.738Z,7.43
2019-04-28T05:06:59.724Z,7.70
2019-04-28T05:09:31.153Z,7.70
2019-04-28T05:12:03.135Z,7.33
2019-04-28T05:14:33.560Z,7.87
2019-04-28T05:17:02.927Z,7.23
2019-04-28T05:19:32.221Z,6.87
2019-04-28T05:22:01.477Z,7.30
2019-04-28T05:24:56.090Z,7.07
2019-04-28T05:27:25.773Z,6.73
2019-04-28T05:29:56.745Z,6.83
2019-04-28T05:32:39.316Z,6.70
2019-04-28T05:35:04.534Z,7.87
2019-04-28T05:37:40.402Z,7.27
2019-04-28T05:40:17.863Z,7.53
2019-04-28T05:43:05.902Z,7.30
2019-04-28T05:45:40.859Z,8.27
2019-04-28T05:48:19.999Z,8.13
2019-04-28T05:51:01.930Z,8.37
2019-04-28T05:53:56.881Z,9.50
2019-04-28T05:57:10.653Z,8.77
2019-04-28T05:59:56.731Z,9.90
2019-04-28T06:02:30.712Z,9.63
2019-04-28T06:05:02.166Z,9.80
2019-04-28T06:07:49.422Z,9.60
2019-04-28T06:10:23.556Z,11.10
2019-04-28T06:13:15.833Z,11.67
2019-04-28T06:15:59.800Z,11.10
2019-04-28T06:18:35.308Z,11.90
2019-04-28T06:21:27.595Z,12.53
2019-04-28T06:23:59.946Z,14.27
2019-04-28T06:26:30.505Z,14.70
2019-04-28T06:28:59.747Z,15.83
2019-04-28T06:31:29.124Z,16.90
2019-04-28T06:34:01.159Z,17.73
2019-04-28T06:36:30.350Z,17.40
2019-04-28T06:39:00.660Z,18.17
2019-04-28T06:41:30.685Z,17.73
2019-04-28T06:43:59.918Z,17.87
2019-04-28T06:46:31.461Z,18.63
2019-04-28T06:49:03.637Z,17.90
2019-04-28T06:53:13.688Z,18.53
2019-04-28T06:55:48.854Z,18.23
2019-04-28T06:58:31.683Z,17.27
2019-04-28T07:01:02.626Z,17.90
2019-04-28T07:03:33.607Z,17.47
2019-04-28T07:06:03.002Z,19.77
2019-04-28T07:08:32.291Z,18.60
2019-04-28T07:11:01.529Z,19.57
2019-04-28T07:13:31.973Z,17.67
2019-04-28T07:16:16.488Z,18.63
2019-04-28T07:18:41.250Z,18.83
2019-04-28T07:21:39.933Z,18.30
2019-04-28T07:24:18.447Z,18.27
2019-04-28T07:26:58.992Z,18.93
2019-04-28T07:29:34.923Z,15.17
2019-04-28T07:35:10.739Z,16.50
2019-04-28T07:40:35.203Z,15.97
2019-04-28T07:43:05.405Z,17.03
2019-04-28T07:45:47.056Z,16.17
2019-04-28T07:48:56.551Z,19.07
2019-04-28T07:50:58.291Z,20.47
2019-04-28T07:53:33.361Z,19.43
2019-04-28T07:56:07.058Z,17.60
2019-04-28T07:58:42.551Z,17.30
2019-04-28T08:01:17.791Z,16.50
2019-04-28T08:07:28.300Z,15.43
2019-04-28T08:12:54.546Z,17.27
2019-04-28T08:16:07.190Z,17.43
2019-04-28T08:19:10.026Z,15.93
2019-04-28T08:21:49.691Z,16.37
2019-04-28T08:24:32.223Z,16.17
2019-04-28T08:27:38.264Z,19.33
2019-04-28T08:30:09.221Z,17.03
2019-04-28T08:32:53.076Z,20.30
2019-04-28T08:35:22.263Z,18.63
2019-04-28T08:37:51.455Z,17.67
2019-04-28T08:40:20.767Z,17.80
2019-04-28T08:42:52.301Z,21.63
2019-04-28T08:45:26.462Z,19.90
2019-04-28T08:47:58.067Z,18.17
2019-04-28T08:50:30.979Z,16.70
2019-04-28T08:53:01.652Z,16.13
2019-04-28T08:55:34.504Z,18.23
2019-04-28T08:58:36.338Z,15.30
2019-04-28T09:01:15.111Z,14.27
2019-04-28T09:04:17.215Z,13.90
2019-04-28T09:07:04.351Z,14.30
2019-04-28T09:09:38.148Z,13.43
2019-04-28T09:12:18.926Z,13.13
2019-04-28T09:14:58.246Z,13.13
2019-04-28T09:17:29.799Z,18.97
2019-04-28T09:20:03.750Z,21.03
2019-04-28T09:22:35.144Z,17.73
2019-04-28T09:25:04.583Z,11.33
2019-04-28T09:27:33.727Z,12.40
2019-04-28T09:30:02.983Z,12.50
2019-04-28T09:32:32.116Z,13.23
2019-04-28T09:35:01.291Z,13.43
2019-04-28T09:37:31.568Z,12.80
2019-04-28T09:40:06.527Z,13.30
2019-04-28T09:42:54.838Z,11.60
2019-04-28T09:45:30.521Z,11.67
2019-04-28T09:48:00.928Z,11.10
2019-04-28T09:50:30.093Z,11.73
2019-04-28T09:52:59.386Z,10.73
2019-04-28T09:55:29.986Z,12.83
2019-04-28T09:57:59.154Z,11.47
2019-04-28T10:00:28.446Z,12.90
2019-04-28T10:02:57.702Z,11.33
2019-04-28T10:05:27.160Z,9.93
2019-04-28T10:07:59.372Z,11.10
2019-04-28T10:10:29.905Z,10.63
2019-04-28T10:12:59.061Z,10.50
2019-04-28T10:15:29.838Z,14.57
2019-04-28T10:18:02.923Z,11.83
2019-04-28T10:20:41.571Z,11.53
2019-04-28T10:23:15.102Z,10.23
2019-04-28T10:26:04.489Z,16.03
2019-04-28T10:42:03.475Z,14.57
2019-04-28T10:47:29.367Z,12.70
2019-04-28T10:49:59.998Z,12.43
2019-04-28T10:52:38.067Z,13.57
2019-04-28T10:55:09.355Z,14.57
2019-04-28T10:57:42.132Z,14.10
2019-04-28T11:00:11.927Z,15.20
2019-04-28T11:02:45.266Z,13.70
2019-04-28T11:05:19.409Z,15.20
2019-04-28T11:07:50.444Z,15.60
2019-04-28T11:10:22.474Z,15.73
2019-04-28T11:12:54.605Z,16.50
2019-04-28T11:15:29.323Z,30.83
2019-04-28T11:18:00.933Z,18.27
2019-04-28T11:20:38.303Z,22.70
2019-04-28T11:23:09.830Z,16.23
2019-04-28T11:28:50.271Z,15.73
2019-04-28T11:31:49.964Z,15.70
2019-04-28T11:39:02.063Z,15.30
2019-04-28T11:43:30.144Z,14.43
2019-04-28T11:46:11.320Z,15.27
2019-04-28T11:52:26.920Z,14.93
2019-04-28T11:55:05.139Z,15.17
2019-04-28T11:57:35.509Z,14.40
2019-04-28T12:00:14.301Z,14.30
2019-04-28T12:02:46.825Z,13.67
2019-04-28T12:05:16.244Z,14.87
2019-04-28T12:07:45.562Z,12.20
2019-04-28T12:10:18.965Z,12.70
2019-04-28T12:13:06.422Z,12.83
2019-04-28T12:16:02.918Z,13.20
2019-04-28T12:18:50.117Z,11.43
2019-04-28T12:21:19.335Z,15.60
2019-04-28T12:23:48.484Z,15.23
2019-04-28T12:26:17.675Z,14.80
2019-04-28T12:28:46.902Z,12.27
2019-04-28T12:31:16.104Z,13.13
2019-04-28T12:33:45.386Z,13.07
2019-04-28T12:36:14.637Z,13.43
2019-04-28T12:38:43.938Z,12.30
2019-04-28T12:41:13.281Z,12.70
2019-04-28T12:43:42.493Z,12.70
2019-04-28T12:46:11.859Z,12.87
2019-04-28T12:48:40.990Z,11.83
2019-04-28T12:51:10.574Z,12.50
2019-04-28T12:53:39.720Z,12.50
2019-04-28T12:56:09.037Z,11.57
2019-04-28T12:58:38.575Z,11.20
2019-04-28T13:01:30.842Z,11.50
2019-04-28T13:04:17.998Z,10.77
2019-04-28T13:07:07.996Z,10.40
2019-04-28T13:09:37.148Z,11.30
2019-04-28T13:12:06.444Z,12.47
2019-04-28T13:14:35.655Z,11.77
2019-04-28T13:17:04.930Z,11.47
2019-04-28T13:19:34.214Z,13.90
2019-04-28T13:22:54.413Z,12.27
2019-04-28T13:25:23.573Z,13.00
2019-04-28T13:27:52.909Z,14.43
2019-04-28T13:30:22.238Z,13.13
2019-04-28T13:32:51.442Z,20.10
2019-04-28T13:35:23.637Z,15.83
2019-04-28T13:37:52.935Z,16.07
2019-04-28T13:40:28.289Z,15.63
2019-04-28T13:42:58.062Z,14.30
2019-04-28T13:48:19.155Z,13.47
2019-04-28T13:50:51.539Z,15.07
2019-04-28T13:53:25.190Z,14.90
2019-04-28T13:56:02.877Z,20.13
2019-04-28T13:58:35.769Z,19.33
2019-04-28T14:01:24.599Z,18.43
2019-04-28T14:04:28.222Z,17.90
2019-04-28T14:07:05.204Z,21.30
2019-04-28T14:09:34.581Z,21.30
2019-04-28T14:12:05.341Z,19.77
2019-04-28T14:14:35.944Z,20.53
2019-04-28T14:17:05.298Z,20.03
2019-04-28T14:19:59.110Z,19.00
2019-04-28T14:22:30.880Z,21.33
2019-04-28T14:25:02.140Z,26.10
2019-04-28T14:27:34.163Z,17.70
2019-04-28T14:30:04.862Z,18.17
2019-04-28T14:32:34.251Z,17.73
2019-04-28T14:35:03.788Z,17.37
2019-04-28T14:37:35.152Z,18.37
2019-04-28T14:40:04.672Z,17.73
2019-04-28T14:42:36.719Z,18.57
2019-04-28T14:45:08.025Z,18.23
2019-04-28T14:47:37.343Z,16.17
2019-04-28T14:50:10.064Z,14.93
2019-04-28T14:52:40.624Z,15.27
2019-04-28T14:55:13.006Z,15.53
2019-04-28T14:57:46.408Z,14.57
2019-04-28T15:00:24.486Z,16.13
2019-04-28T15:03:07.519Z,16.27
2019-04-28T15:09:40.501Z,20.13
2019-04-28T15:23:18.239Z,16.93
2019-04-28T15:26:39.535Z,20.70
2019-04-28T15:29:11.198Z,17.90
2019-04-28T15:31:40.713Z,17.80
2019-04-28T15:34:09.954Z,21.13
2019-04-28T15:36:39.095Z,20.13
2019-04-28T15:39:09.349Z,18.97
2019-04-28T15:41:38.576Z,18.47
2019-04-28T15:44:07.837Z,17.80
2019-04-28T15:46:37.002Z,23.90
2019-04-28T15:49:06.317Z,23.20
2019-04-28T15:51:35.513Z,23.60
2019-04-28T15:54:04.684Z,21.90
2019-04-28T15:56:52.326Z,15.77
2019-04-28T15:59:23.338Z,15.03
2019-04-28T16:01:52.485Z,14.97
2019-04-28T16:04:21.704Z,13.67
2019-04-28T16:06:50.888Z,14.77
2019-04-28T16:09:20.074Z,14.10
2019-04-28T16:11:49.276Z,14.60
2019-04-28T16:14:18.706Z,13.90
2019-04-28T16:16:47.881Z,14.30
2019-04-28T16:19:17.092Z,13.33
2019-04-28T16:21:46.292Z,14.10
2019-04-28T16:24:15.870Z,14.23
2019-04-28T16:26:45.057Z,14.00
2019-04-28T16:29:14.169Z,15.80
2019-04-28T16:31:43.712Z,12.47
2019-04-28T16:34:12.877Z,13.00
2019-04-28T16:36:42.057Z,13.20
2019-04-28T16:39:11.252Z,13.10
2019-04-28T16:41:42.053Z,13.63
2019-04-28T16:44:11.241Z,14.13
2019-04-28T16:46:40.462Z,14.23
2019-04-28T16:49:11.166Z,13.37
2019-04-28T16:51:40.549Z,13.73
2019-04-28T16:54:10.102Z,16.80
2019-04-28T16:57:01.791Z,14.80
2019-04-28T16:59:39.005Z,34.33
2019-04-28T17:02:20.200Z,14.00
2019-04-28T17:04:49.293Z,13.43
2019-04-28T17:09:52.063Z,15.27
2019-04-28T17:12:21.185Z,13.40
2019-04-28T17:14:50.280Z,12.77
2019-04-28T17:17:19.414Z,12.77
2019-04-28T17:19:48.525Z,11.90
2019-04-28T17:22:17.733Z,11.50
2019-04-28T17:24:47.189Z,11.53
2019-04-28T17:27:16.454Z,10.97
2019-04-28T17:29:45.586Z,11.00
2019-04-28T17:32:14.918Z,11.03
2019-04-28T17:34:44.072Z,11.03
2019-04-28T17:37:14.176Z,11.33
2019-04-28T17:39:43.337Z,12.03
2019-04-28T17:42:13.024Z,11.03
2019-04-28T17:44:42.344Z,11.73
2019-04-28T17:47:12.471Z,12.13
2019-04-28T17:49:41.681Z,11.50
2019-04-28T17:52:10.827Z,10.90
2019-04-28T17:54:39.958Z,11.87
2019-04-28T17:57:09.278Z,12.23
2019-04-28T17:59:59.468Z,12.40
2019-04-28T18:02:46.753Z,11.60
2019-04-28T18:05:33.006Z,11.90
2019-04-28T18:08:03.330Z,11.30
2019-04-28T18:10:32.809Z,12.53
2019-04-28T18:13:02.079Z,13.10
2019-04-28T18:15:40.684Z,12.47
2019-04-28T18:18:22.938Z,11.97
2019-04-28T18:20:52.160Z,12.20
2019-04-28T18:23:21.321Z,12.60
2019-04-28T18:25:50.602Z,11.60
2019-04-28T18:28:19.780Z,21.50
2019-04-28T18:30:57.155Z,13.60
2019-04-28T18:33:35.461Z,16.23
2019-04-28T18:36:13.520Z,12.50
2019-04-28T18:38:51.201Z,11.93
2019-04-28T18:41:39.525Z,12.40
2019-04-28T18:44:18.387Z,11.87
2019-04-28T18:46:47.507Z,12.07
2019-04-28T18:49:16.707Z,12.40
2019-04-28T18:51:45.874Z,12.03
2019-04-28T18:54:15.184Z,12.57
2019-04-28T18:56:44.321Z,11.60
2019-04-28T18:59:14.602Z,11.87
2019-04-28T19:02:01.669Z,12.47
2019-04-28T19:04:30.962Z,11.73
2019-04-28T19:07:05.359Z,13.07
2019-04-28T19:09:56.012Z,12.00
2019-04-28T19:12:32.730Z,12.83
2019-04-28T19:15:33.558Z,12.00
2019-04-28T19:18:07.453Z,16.23
2019-04-28T19:20:36.612Z,18.23
2019-04-28T19:23:05.846Z,20.40
2019-04-28T19:25:36.607Z,13.20
2019-04-28T19:28:05.958Z,12.10
2019-04-28T19:30:36.189Z,11.90
2019-04-28T19:33:05.399Z,12.10
2019-04-28T19:35:34.753Z,12.13
2019-04-28T19:38:04.100Z,11.97
2019-04-28T19:40:33.369Z,11.33
2019-04-28T19:43:02.581Z,13.07
2019-04-28T19:45:33.329Z,12.33
2019-04-28T19:48:02.645Z,12.43
2019-04-28T19:50:31.762Z,11.57
2019-04-28T19:53:00.906Z,12.37
2019-04-28T19:55:33.846Z,12.37
2019-04-28T19:58:34.563Z,11.73
2019-04-28T20:01:10.420Z,18.10
2019-04-28T20:03:39.620Z,22.97
2019-04-28T20:06:08.819Z,17.00
2019-04-28T20:08:37.996Z,14.17
2019-04-28T20:11:07.131Z,11.40
2019-04-28T20:13:36.357Z,11.33
2019-04-28T20:16:05.562Z,12.60
2019-04-28T20:18:34.771Z,12.40
2019-04-28T20:21:04.161Z,12.57
2019-04-28T20:23:33.325Z,11.53
2019-04-28T20:26:02.465Z,11.50
2019-04-28T20:28:31.780Z,11.87
2019-04-28T20:31:00.999Z,11.80
2019-04-28T20:33:30.115Z,13.13
2019-04-28T20:36:05.535Z,12.50
2019-04-28T20:38:34.728Z,12.83
2019-04-28T20:41:12.575Z,12.07
2019-04-28T20:43:42.045Z,12.37
2019-04-28T20:46:11.247Z,11.63
2019-04-28T20:48:40.479Z,12.07
2019-04-28T20:51:09.736Z,14.63
2019-04-28T20:53:38.912Z,16.90
2019-04-28T20:56:08.080Z,12.67
2019-04-28T20:58:37.202Z,29.20
2019-04-28T21:01:06.456Z,14.20
2019-04-28T21:03:38.512Z,13.20
2019-04-28T21:06:06.849Z,12.03
2019-04-28T21:08:36.086Z,12.50
2019-04-28T21:11:05.243Z,11.90
2019-04-28T21:13:34.479Z,12.23
2019-04-28T21:16:03.669Z,12.33
2019-04-28T21:18:32.930Z,12.40
2019-04-28T21:21:02.104Z,12.10
2019-04-28T21:23:31.312Z,11.90
2019-04-28T21:26:00.413Z,12.40
2019-04-28T21:28:29.535Z,12.43
2019-04-28T21:30:58.695Z,13.40
2019-04-28T21:33:27.838Z,13.70
2019-04-28T21:35:56.989Z,12.80
2019-04-28T21:38:26.155Z,12.03
2019-04-28T21:40:55.291Z,13.30
2019-04-28T21:43:43.627Z,13.87
2019-04-28T21:46:41.268Z,13.03
2019-04-28T21:49:29.712Z,14.03
2019-04-28T21:51:58.941Z,13.17
2019-04-28T21:54:28.070Z,13.40
2019-04-28T21:56:57.251Z,13.90
2019-04-28T21:59:26.531Z,13.10
2019-04-28T22:01:55.811Z,12.40
2019-04-28T22:04:25.164Z,13.97
2019-04-28T22:06:54.339Z,13.13
2019-04-28T22:09:23.487Z,13.80
2019-04-28T22:11:52.624Z,13.13
2019-04-28T22:14:21.798Z,12.87
2019-04-28T22:16:50.928Z,14.23
2019-04-28T22:19:21.346Z,13.97
2019-04-28T22:21:50.467Z,14.60
2019-04-28T22:24:39.953Z,14.50
2019-04-28T22:27:11.776Z,14.53
2019-04-28T22:29:40.923Z,14.87
2019-04-28T22:32:10.265Z,15.43
2019-04-28T22:34:39.497Z,15.10
2019-04-28T22:37:09.235Z,15.27
2019-04-28T22:39:38.427Z,14.67
2019-04-28T22:42:09.175Z,15.70
2019-04-28T22:44:38.481Z,14.77
2019-04-28T22:47:07.648Z,15.87
2019-04-28T22:49:37.847Z,15.67
2019-04-28T22:52:07.039Z,15.07
2019-04-28T22:54:58.576Z,16.40
2019-04-28T22:57:45.498Z,14.93
2019-04-28T23:00:34.528Z,16.27
2019-04-28T23:03:03.824Z,16.70
2019-04-28T23:05:33.563Z,16.40
2019-04-28T23:08:02.751Z,15.37
2019-04-28T23:10:32.103Z,16.67
2019-04-28T23:13:01.455Z,16.47
2019-04-28T23:15:30.612Z,16.40
2019-04-28T23:18:00.071Z,16.97
2019-04-28T23:20:31.444Z,16.77
2019-04-28T23:23:03.331Z,17.93
2019-04-28T23:25:32.600Z,16.87
2019-04-28T23:28:01.725Z,17.23
2019-04-28T23:30:34.616Z,16.97
2019-04-28T23:33:03.959Z,18.33
2019-04-28T23:35:34.290Z,18.20
2019-04-28T23:38:03.580Z,18.73
2019-04-28T23:40:32.997Z,18.00
2019-04-28T23:43:05.778Z,17.87
2019-04-28T23:45:35.038Z,17.97
2019-04-28T23:48:04.383Z,17.67
2019-04-28T23:50:42.870Z,17.60
2019-04-28T23:53:14.939Z,19.20
2019-04-28T23:55:44.582Z,18.60
2019-04-28T23:58:13.726Z,18.57
